Time;durP1;ratioP1;P1;durP2;ratioP2;P2;SDS_P1;SDS_P2;PMS_P1;PMS_P2;Temp;Humidity;BMP_temperature;BMP_pressure;BME280_temperature;BME280_humidity;BME280_pressure;Samples;Min_cycle;Max_cycle;Signal;HPM_P1;HPM_P2
2022/12/21 00:00:46;;;;;;;26.67;16.95;;;;;;;;;;6181642;22;20183;-87
2022/12/21 00:03:14;;;;;;;30.67;17.00;;;5.70;1.00;;;;;;6309894;22;20256;-87
2022/12/21 00:05:43;;;;;;;44.72;18.10;;;5.70;1.00;;;;;;6309518;22;20220;-87
2022/12/21 00:08:09;;;;;;;30.42;18.08;;;5.30;1.00;;;;;;6309330;22;20173;-87
2022/12/21 00:10:36;;;;;;;29.33;17.98;;;5.40;1.00;;;;;;6309800;22;20664;-87
2022/12/21 00:13:04;;;;;;;31.45;17.23;;;5.30;1.00;;;;;;6280835;22;20224;-87
2022/12/21 00:15:30;;;;;;;29.52;18.13;;;5.50;1.00;;;;;;6282281;22;20221;-87
2022/12/21 00:17:57;;;;;;;34.75;18.65;;;5.70;1.00;;;;;;6296472;22;20198;-87
2022/12/21 00:20:25;;;;;;;31.70;17.98;;;5.60;1.00;;;;;;6287059;22;20570;-87
2022/12/21 00:22:52;;;;;;;30.40;18.67;;;5.50;1.00;;;;;;6281919;22;20574;-86
2022/12/21 00:25:19;;;;;;;38.22;18.50;;;5.50;1.00;;;;;;6280809;22;20232;-87
2022/12/21 00:27:46;;;;;;;27.85;16.83;;;5.00;1.00;;;;;;6281489;22;20212;-87
2022/12/21 00:30:13;;;;;;;34.78;19.10;;;5.20;1.00;;;;;;6281975;22;20709;-87
2022/12/21 00:32:40;;;;;;;31.38;18.13;;;5.50;1.00;;;;;;6283964;22;20734;-87
2022/12/21 00:35:07;;;;;;;27.20;17.95;;;5.50;1.00;;;;;;6289964;22;20509;-87
2022/12/21 00:37:35;;;;;;;27.25;16.80;;;5.10;1.00;;;;;;6291787;22;20178;-87
2022/12/21 00:40:02;;;;;;;27.75;17.08;;;5.40;1.00;;;;;;6288974;22;20261;-88
2022/12/21 00:42:29;;;;;;;29.63;18.00;;;5.20;1.00;;;;;;6293782;22;20658;-87
2022/12/21 00:44:56;;;;;;;37.03;19.00;;;5.20;1.00;;;;;;6291161;22;20213;-87
2022/12/21 00:47:23;;;;;;;37.80;18.77;;;5.20;1.00;;;;;;6292149;22;20185;-88
2022/12/21 00:49:49;;;;;;;29.83;17.15;;;4.50;1.00;;;;;;6293404;22;20189;-87
2022/12/21 00:52:16;;;;;;;28.70;17.70;;;5.10;1.00;;;;;;6289612;22;20205;-88
2022/12/21 00:54:45;;;;;;;35.33;20.05;;;5.10;1.00;;;;;;6293791;22;20622;-87
2022/12/21 00:57:12;;;;;;;35.13;19.42;;;5.00;1.00;;;;;;6287925;22;20710;-87
2022/12/21 00:59:39;;;;;;;38.78;19.15;;;5.40;1.00;;;;;;6284856;22;20646;-87
2022/12/21 01:02:06;;;;;;;32.90;18.58;;;5.50;1.00;;;;;;6288737;22;20212;-86
2022/12/21 01:04:33;;;;;;;31.25;19.15;;;5.50;1.00;;;;;;6302772;22;20177;-88
2022/12/21 01:07:00;;;;;;;35.05;20.65;;;5.30;1.00;;;;;;6306459;22;20202;-88
2022/12/21 01:09:27;;;;;;;36.67;19.35;;;5.50;1.00;;;;;;6305918;22;20181;-87
2022/12/21 01:11:55;;;;;;;40.58;19.67;;;5.30;1.00;;;;;;6302405;22;20197;-87
2022/12/21 01:14:22;;;;;;;27.23;18.38;;;5.00;1.00;;;;;;6306357;22;20158;-87
2022/12/21 01:16:49;;;;;;;35.35;20.55;;;5.40;1.00;;;;;;6303208;22;20205;-86
2022/12/21 01:19:16;;;;;;;34.80;18.33;;;4.80;1.00;;;;;;6296345;22;20518;-87
2022/12/21 01:21:43;;;;;;;37.08;19.17;;;5.70;1.00;;;;;;6297124;22;20233;-86
2022/12/21 01:24:12;;;;;;;28.17;17.65;;;4.80;1.00;;;;;;6301822;22;20177;-86
2022/12/21 01:26:39;;;;;;;29.40;18.33;;;5.10;1.00;;;;;;6304927;22;20198;-86
2022/12/21 01:29:08;;;;;;;38.55;19.30;;;5.10;1.00;;;;;;6297019;22;20193;-86
2022/12/21 01:31:34;;;;;;;32.50;17.55;;;4.80;1.00;;;;;;6304462;22;20201;-87
2022/12/21 01:34:01;;;;;;;30.38;17.92;;;4.80;1.00;;;;;;6305759;22;20173;-87
2022/12/21 01:36:28;;;;;;;34.53;20.88;;;4.80;1.00;;;;;;6305632;22;20167;-86
2022/12/21 01:38:55;;;;;;;30.48;18.35;;;5.00;1.00;;;;;;6305802;22;20173;-86
2022/12/21 01:41:24;;;;;;;34.60;18.88;;;5.20;1.00;;;;;;6305647;22;20202;-86
2022/12/21 01:43:52;;;;;;;33.00;17.80;;;5.00;1.00;;;;;;6305687;22;20193;-87
2022/12/21 01:46:31;;;;;;;33.13;21.15;;;4.80;1.00;;;;;;6305877;22;20646;-87
2022/12/21 01:49:06;;;;;;;32.85;17.77;;;4.80;1.00;;;;;;6305978;22;20150;-87
2022/12/21 01:51:36;;;;;;;30.58;18.48;;;5.10;1.00;;;;;;6304613;22;20194;-86
2022/12/21 01:54:09;;;;;;;44.00;20.90;;;4.70;20.00;;;;;;6304839;22;20158;-86
2022/12/21 01:56:39;;;;;;;32.95;18.90;;;4.80;1.00;;;;;;6305328;22;20162;-87
2022/12/21 01:59:13;;;;;;;33.40;19.38;;;5.30;2.70;;;;;;6305030;22;20170;-85
2022/12/21 02:01:41;;;;;;;38.65;20.90;;;5.40;15.80;;;;;;6305254;22;20245;-87
2022/12/21 02:04:08;;;;;;;31.65;18.98;;;5.30;41.70;;;;;;6305518;22;20153;-87
2022/12/21 02:06:41;;;;;;;36.67;20.10;;;4.90;1.00;;;;;;6305249;22;20190;-87
2022/12/21 02:09:09;;;;;;;31.75;18.80;;;4.80;1.00;;;;;;6305495;22;20153;-87
2022/12/21 02:11:35;;;;;;;36.05;18.30;;;4.70;84.00;;;;;;6295194;22;20255;-87
2022/12/21 02:14:02;;;;;;;36.47;19.63;;;5.30;97.90;;;;;;6284651;22;20201;-87
2022/12/21 02:16:34;;;;;;;31.75;21.02;;;5.30;99.90;;;;;;6285643;22;20555;-87
2022/12/21 02:19:34;;;;;;;30.85;20.05;;;5.30;99.90;;;;;;6284754;22;20186;-87
2022/12/21 02:22:05;;;;;;;34.67;20.55;;;5.20;93.70;;;;;;6283690;22;20194;-87
2022/12/21 02:25:17;;;;;;;33.97;19.55;;;4.80;93.90;;;;;;6291153;22;20146;-87
2022/12/21 02:28:11;;;;;;;32.05;19.08;;;4.90;26.20;;;;;;6176502;22;20170;-87
2022/12/21 02:31:03;;;;;;;44.30;19.13;;;4.90;30.00;;;;;;6305200;22;20158;-87
2022/12/21 02:33:43;;;;;;;39.40;20.02;;;4.90;99.90;;;;;;6291734;22;20189;-88
2022/12/21 02:36:23;;;;;;;41.40;22.35;;;5.10;99.90;;;;;;6289919;22;20188;-87
2022/12/21 02:39:00;;;;;;;43.40;19.30;;;5.10;99.90;;;;;;6302425;22;20189;-87
2022/12/21 02:41:36;;;;;;;37.28;20.65;;;4.90;59.90;;;;;;6301461;22;20208;-87
2022/12/21 02:44:15;;;;;;;41.30;21.90;;;4.90;99.90;;;;;;6303422;22;20194;-87
2022/12/21 02:46:58;;;;;;;39.42;20.77;;;4.80;99.90;;;;;;6297764;22;20495;-87
2022/12/21 02:49:31;;;;;;;32.47;20.83;;;4.60;99.90;;;;;;6296689;22;20169;-87
2022/12/21 02:52:04;;;;;;;40.97;22.83;;;4.80;99.90;;;;;;6286008;22;20194;-87
2022/12/21 02:54:31;;;;;;;36.22;20.52;;;5.10;99.90;;;;;;6281447;22;20178;-87
2022/12/21 02:56:57;;;;;;;49.85;24.45;;;4.60;99.90;;;;;;6280722;22;20221;-87
2022/12/21 02:59:29;;;;;;;41.50;20.88;;;5.10;99.90;;;;;;6280551;22;20561;-87
2022/12/21 03:02:26;;;;;;;43.88;21.88;;;5.20;99.90;;;;;;6280643;22;20327;-87
2022/12/21 03:05:20;;;;;;;40.47;22.17;;;5.10;99.90;;;;;;6278753;22;20504;-87
2022/12/21 03:07:58;;;;;;;40.65;21.95;;;5.00;99.90;;;;;;6246589;22;20245;-88
2022/12/21 03:10:42;;;;;;;38.55;21.88;;;5.10;99.90;;;;;;6280800;22;20146;-88
2022/12/21 03:13:19;;;;;;;39.70;19.00;;;5.00;99.90;;;;;;6279712;22;20213;-88
2022/12/21 03:15:53;;;;;;;43.13;21.27;;;4.80;99.90;;;;;;6283711;22;20154;-88
2022/12/21 03:18:31;;;;;;;42.20;20.08;;;4.80;99.90;;;;;;6292638;22;20162;-86
2022/12/21 03:21:03;;;;;;;41.75;22.08;;;4.40;99.90;;;;;;6288895;22;20185;-87
2022/12/21 03:23:35;;;;;;;39.05;22.45;;;3.70;99.90;;;;;;6280048;22;20158;-87
2022/12/21 03:26:07;;;;;;;39.90;22.52;;;4.90;99.90;;;;;;6278320;22;20274;-87
2022/12/21 03:28:37;;;;;;;46.13;22.05;;;4.90;99.90;;;;;;6278454;22;20559;-87
2022/12/21 03:31:08;;;;;;;39.30;23.45;;;4.80;99.90;;;;;;6278416;22;20200;-87
2022/12/21 03:33:41;;;;;;;45.72;22.85;;;4.80;99.90;;;;;;6277941;22;20245;-87
2022/12/21 03:36:14;;;;;;;43.67;22.10;;;4.80;99.90;;;;;;6278566;22;20269;-88
2022/12/21 03:38:46;;;;;;;41.33;22.15;;;5.00;99.90;;;;;;6278620;22;20173;-87
2022/12/21 03:41:19;;;;;;;36.35;22.40;;;5.10;99.90;;;;;;6278336;22;20530;-88
2022/12/21 03:43:49;;;;;;;42.90;20.83;;;4.60;99.90;;;;;;6278319;22;20246;-88
2022/12/21 03:46:21;;;;;;;39.95;22.58;;;4.80;99.90;;;;;;6278954;22;20660;-88
2022/12/21 03:48:53;;;;;;;39.85;22.10;;;4.70;99.90;;;;;;6279903;22;20169;-88
2022/12/21 03:51:27;;;;;;;39.60;21.35;;;5.10;99.90;;;;;;6280776;22;20200;-87
2022/12/21 03:54:01;;;;;;;44.80;25.50;;;5.00;99.90;;;;;;6281798;22;20169;-87
2022/12/21 03:56:31;;;;;;;39.90;21.15;;;4.50;99.90;;;;;;6280018;22;20233;-87
2022/12/21 03:59:01;;;;;;;49.05;21.55;;;4.80;99.90;;;;;;6280174;22;20566;-88
2022/12/21 04:01:39;;;;;;;38.30;21.65;;;4.80;99.90;;;;;;6281706;22;20205;-87
2022/12/21 04:04:22;;;;;;;46.38;23.05;;;5.10;99.90;;;;;;6280363;22;20221;-87
2022/12/21 04:06:50;;;;;;;44.00;22.17;;;4.80;99.90;;;;;;6278962;22;20189;-88
2022/12/21 04:09:17;;;;;;;39.30;23.40;;;4.50;99.90;;;;;;6279968;22;20197;-88
2022/12/21 04:14:29;;;;;;;42.40;20.95;;;5.10;99.90;;;;;;6280035;22;20161;-87
2022/12/21 04:16:56;;;;;;;44.05;24.10;;;4.80;99.90;;;;;;6280191;22;20174;-87
2022/12/21 04:22:09;;;;;;;45.00;22.48;;;4.80;99.90;;;;;;6280159;22;20235;-87
2022/12/21 04:30:05;;;;;;;36.33;22.10;;;4.70;99.90;;;;;;6284194;22;20193;-87
2022/12/21 04:32:32;;;;;;;44.90;24.58;;;5.20;99.90;;;;;;6306485;22;20173;-88
2022/12/21 04:35:00;;;;;;;40.05;23.02;;;4.90;99.90;;;;;;6306646;22;20192;-88
2022/12/21 04:37:32;;;;;;;40.65;22.52;;;4.60;99.90;;;;;;6306688;22;20186;-89
2022/12/21 04:39:59;;;;;;;42.45;22.85;;;5.20;99.90;;;;;;6306060;22;20147;-87
2022/12/21 04:42:27;;;;;;;47.15;21.63;;;4.90;99.90;;;;;;6299993;22;20228;-87
2022/12/21 04:44:54;;;;;;;42.63;22.70;;;5.00;99.90;;;;;;6294813;22;20174;-87
2022/12/21 04:47:20;;;;;;;43.38;21.52;;;4.60;99.90;;;;;;6293000;22;20277;-87
2022/12/21 04:49:47;;;;;;;45.00;25.83;;;4.90;99.90;;;;;;6292404;22;20189;-88
2022/12/21 04:52:16;;;;;;;43.55;22.20;;;5.00;99.90;;;;;;6292054;22;20222;-87
2022/12/21 04:54:43;;;;;;;45.92;24.38;;;4.80;99.90;;;;;;6296927;22;20185;-87
2022/12/21 04:57:10;;;;;;;52.67;27.30;;;4.80;99.90;;;;;;6303057;22;20174;-87
2022/12/21 04:59:37;;;;;;;52.50;27.07;;;;;;;;;;6297371;22;20426;-87
2022/12/21 05:02:04;;;;;;;44.58;26.10;;;5.20;99.90;;;;;;6295799;22;20430;-86
2022/12/21 05:04:30;;;;;;;46.08;25.90;;;5.00;99.90;;;;;;6294803;22;20205;-87
2022/12/21 05:06:57;;;;;;;47.88;25.60;;;5.00;99.90;;;;;;6295735;22;20201;-87
2022/12/21 05:09:26;;;;;;;45.13;25.77;;;4.80;99.90;;;;;;6297643;22;20201;-86
2022/12/21 05:11:53;;;;;;;44.33;24.52;;;5.20;99.90;;;;;;6295167;22;20194;-87
2022/12/21 05:14:20;;;;;;;35.45;21.63;;;5.00;99.90;;;;;;6294806;22;20178;-86
2022/12/21 05:16:47;;;;;;;40.08;22.83;;;4.90;99.90;;;;;;6292936;22;20224;-86
2022/12/21 05:19:14;;;;;;;51.15;25.35;;;5.00;99.90;;;;;;6294057;22;20206;-86
2022/12/21 05:21:41;;;;;;;44.80;25.13;;;5.10;99.90;;;;;;6294834;22;20222;-86
2022/12/21 05:24:08;;;;;;;42.88;24.33;;;4.90;99.90;;;;;;6294395;22;20178;-86
2022/12/21 05:26:36;;;;;;;42.55;23.05;;;4.90;99.90;;;;;;6284583;22;20189;-87
2022/12/21 05:29:03;;;;;;;46.70;24.77;;;5.20;99.90;;;;;;6285021;22;20234;-87
2022/12/21 05:31:31;;;;;;;43.22;26.15;;;5.20;99.90;;;;;;6283071;22;20281;-87
2022/12/21 05:33:57;;;;;;;51.53;25.35;;;5.30;99.90;;;;;;6283468;22;20257;-88
2022/12/21 05:36:25;;;;;;;43.38;23.52;;;5.20;99.90;;;;;;6280123;22;20177;-88
2022/12/21 05:38:52;;;;;;;55.40;25.27;;;5.50;99.90;;;;;;6279529;22;20667;-88
2022/12/21 05:41:19;;;;;;;41.75;24.58;;;5.20;99.90;;;;;;6279023;22;20228;-88
2022/12/21 05:43:47;;;;;;;50.45;25.35;;;5.00;99.90;;;;;;6279968;22;20177;-88
2022/12/21 05:46:14;;;;;;;44.97;25.45;;;5.30;99.90;;;;;;6279618;22;20710;-87
2022/12/21 05:48:41;;;;;;;43.83;24.73;;;5.20;99.90;;;;;;6297012;22;20178;-85
2022/12/21 05:51:09;;;;;;;57.55;28.38;;;5.20;99.90;;;;;;6295837;22;20277;-85
2022/12/21 05:53:37;;;;;;;43.97;26.85;;;5.10;99.90;;;;;;6296608;22;20253;-85
2022/12/21 05:56:04;;;;;;;45.45;23.85;;;5.40;99.90;;;;;;6289470;22;20257;-86
2022/12/21 05:58:31;;;;;;;48.00;26.10;;;5.10;99.90;;;;;;6291540;22;20174;-85
2022/12/21 06:30:17;;;;;;;55.30;28.02;;;;;;;;;;6078834;23;20203;-84
2022/12/21 06:32:59;;;;;;;55.85;30.70;;;;;;;;;;6163024;23;20196;-84
2022/12/21 06:44:53;;;;;;;58.28;31.65;;;5.60;99.90;;;;;;6250295;23;20210;-84
2022/12/21 06:54:49;;;;;;;47.53;26.42;;;;;;;;;;6040921;23;20250;-84
2022/12/21 07:05:24;;;;;;;51.50;27.63;;;5.60;99.90;;;;;;5906299;24;20177;-83
2022/12/21 07:17:39;;;;;;;50.63;27.88;;;;;;;;;;5958031;23;20332;-85
2022/12/21 07:27:21;;;;;;;50.42;28.50;;;5.70;99.90;;;;;;6252234;22;20541;-85
2022/12/21 07:44:10;;;;;;;46.92;27.40;;;;;;;;;;5878649;22;20208;-87
2022/12/21 07:46:38;;;;;;;43.97;26.95;;;5.80;99.90;;;;;;6284363;22;20182;-88
2022/12/21 07:49:05;;;;;;;46.97;27.95;;;6.00;99.90;;;;;;6286246;22;20177;-89
2022/12/21 07:51:32;;;;;;;50.60;27.70;;;5.80;99.90;;;;;;6288521;22;20177;-89
2022/12/21 07:53:58;;;;;;;45.70;26.60;;;5.80;99.90;;;;;;6281907;22;20198;-89
2022/12/21 07:56:25;;;;;;;46.70;26.67;;;6.50;99.90;;;;;;6266940;23;20182;-88
2022/12/21 07:58:52;;;;;;;54.28;28.17;;;6.10;99.90;;;;;;6268196;23;20175;-89
2022/12/21 08:01:20;;;;;;;50.38;26.33;;;6.30;99.90;;;;;;6259853;23;20238;-88
2022/12/21 08:03:48;;;;;;;53.78;27.17;;;5.60;99.90;;;;;;6273824;22;20166;-86
2022/12/21 08:06:15;;;;;;;51.40;28.02;;;6.20;99.90;;;;;;6273230;22;20201;-87
2022/12/21 08:08:42;;;;;;;45.28;26.88;;;5.90;99.90;;;;;;6269146;23;20174;-88
2022/12/21 08:11:12;;;;;;;47.55;25.33;;;6.00;99.90;;;;;;6258669;23;20179;-88
2022/12/21 08:13:38;;;;;;;47.03;26.30;;;5.80;99.90;;;;;;6258224;22;20178;-88
2022/12/21 08:16:07;;;;;;;48.67;26.27;;;6.20;99.90;;;;;;6257127;23;20178;-88
2022/12/21 08:18:35;;;;;;;51.95;27.27;;;6.10;99.90;;;;;;6258801;22;20174;-87
2022/12/21 08:21:02;;;;;;;43.40;26.75;;;6.20;99.90;;;;;;6273740;22;20162;-86
2022/12/21 08:23:29;;;;;;;51.78;29.52;;;5.80;99.90;;;;;;6273506;22;20158;-85
2022/12/21 08:26:01;;;;;;;42.90;26.83;;;5.80;99.90;;;;;;6259773;22;20226;-89
2022/12/21 08:28:27;;;;;;;48.03;26.95;;;6.00;99.90;;;;;;6255145;23;20267;-87
2022/12/21 08:31:01;;;;;;;52.53;27.08;;;5.80;99.90;;;;;;6257526;23;20258;-87
2022/12/21 08:33:28;;;;;;;55.50;29.90;;;5.80;99.90;;;;;;6261032;23;20163;-88
2022/12/21 08:35:56;;;;;;;51.90;27.02;;;6.00;99.90;;;;;;6255617;22;20254;-88
2022/12/21 08:38:23;;;;;;;47.15;26.10;;;6.10;99.90;;;;;;6255537;23;20506;-87
2022/12/21 08:40:51;;;;;;;39.22;25.20;;;6.20;99.90;;;;;;6255711;23;20181;-88
2022/12/21 08:43:18;;;;;;;42.65;25.45;;;6.40;99.90;;;;;;6256516;23;20182;-87
2022/12/21 08:45:46;;;;;;;45.40;26.48;;;6.10;99.90;;;;;;6253813;22;20202;-88
2022/12/21 08:48:13;;;;;;;46.47;26.13;;;6.00;99.90;;;;;;6254691;23;20281;-88
2022/12/21 08:50:40;;;;;;;44.10;25.25;;;4.90;99.90;;;;;;6255951;23;20636;-89
2022/12/21 08:53:08;;;;;;;36.03;23.33;;;6.00;99.90;;;;;;6257304;23;20174;-87
2022/12/21 08:55:35;;;;;;;50.53;25.83;;;6.20;99.90;;;;;;6256200;22;20682;-87
2022/12/21 08:58:02;;;;;;;43.17;23.95;;;;;;;;;;6255368;23;20174;-88
2022/12/21 09:00:29;;;;;;;40.30;24.60;;;5.60;99.90;;;;;;6255697;23;20253;-89
2022/12/21 09:02:56;;;;;;;46.20;23.67;;;6.20;99.90;;;;;;6255901;22;20202;-89
2022/12/21 09:05:22;;;;;;;43.53;22.50;;;6.60;99.90;;;;;;6255767;22;20194;-88
2022/12/21 09:07:49;;;;;;;42.35;25.73;;;6.40;99.90;;;;;;6255829;22;20217;-88
2022/12/21 09:10:18;;;;;;;47.47;26.27;;;6.20;99.90;;;;;;6255421;23;20654;-88
2022/12/21 09:12:45;;;;;;;42.30;24.88;;;6.30;99.90;;;;;;6254693;23;20233;-87
2022/12/21 09:15:12;;;;;;;42.47;24.60;;;6.40;99.90;;;;;;6254958;22;20573;-87
2022/12/21 09:17:39;;;;;;;46.47;26.25;;;6.50;99.90;;;;;;6254737;22;20177;-88
2022/12/21 09:20:07;;;;;;;43.03;25.10;;;6.50;99.90;;;;;;6255208;23;20179;-89
2022/12/21 09:22:34;;;;;;;40.80;24.38;;;;;;;;;;6254347;22;20185;-89
2022/12/21 09:25:01;;;;;;;46.20;27.13;;;6.40;99.90;;;;;;6255892;22;20201;-87
2022/12/21 09:27:29;;;;;;;37.10;25.35;;;6.60;99.90;;;;;;6253846;23;20210;-88
2022/12/21 09:29:56;;;;;;;41.80;26.35;;;6.50;99.90;;;;;;6251753;23;20465;-89
2022/12/21 09:32:23;;;;;;;39.65;24.90;;;6.30;99.90;;;;;;6252012;23;20254;-87
2022/12/21 09:34:50;;;;;;;38.63;23.88;;;6.60;99.90;;;;;;6261323;22;20230;-88
2022/12/21 09:37:18;;;;;;;42.75;24.55;;;6.60;99.90;;;;;;6266325;23;20174;-88
2022/12/21 09:39:44;;;;;;;37.00;23.65;;;6.90;99.90;;;;;;6265175;23;20209;-88
2022/12/21 09:42:33;;;;;;;41.25;24.05;;;6.70;99.90;;;;;;6259249;23;20664;-88
2022/12/21 09:45:10;;;;;;;38.22;23.92;;;6.70;99.90;;;;;;6251062;22;20213;-88
2022/12/21 09:50:28;;;;;;;42.35;24.73;;;6.50;99.90;;;;;;6250236;23;20186;-87
2022/12/21 09:53:01;;;;;;;41.00;24.27;;;6.70;99.90;;;;;;6261657;23;20155;-87
2022/12/21 09:55:34;;;;;;;38.83;23.88;;;6.70;99.90;;;;;;6253499;22;20225;-87
2022/12/21 09:58:11;;;;;;;37.40;22.80;;;6.30;99.90;;;;;;6255135;23;20166;-87
2022/12/21 10:00:39;;;;;;;38.60;23.27;;;7.20;99.90;;;;;;6253365;23;20159;-87
2022/12/21 10:03:32;;;;;;;43.00;25.45;;;6.80;99.90;;;;;;6250947;23;20257;-87
2022/12/21 10:06:22;;;;;;;34.20;21.92;;;6.90;99.90;;;;;;6252277;22;20277;-88
2022/12/21 10:09:11;;;;;;;38.00;23.10;;;7.10;99.90;;;;;;6251146;23;20185;-88
2022/12/21 10:11:49;;;;;;;40.28;23.38;;;6.60;99.90;;;;;;6250909;23;20163;-87
2022/12/21 10:14:30;;;;;;;37.30;22.35;;;7.10;99.90;;;;;;6252410;22;20194;-87
2022/12/21 10:17:07;;;;;;;39.15;24.65;;;6.90;99.90;;;;;;6253110;23;20197;-88
2022/12/21 10:19:49;;;;;;;38.88;21.65;;;6.90;99.90;;;;;;6251685;23;20159;-87
2022/12/21 10:22:21;;;;;;;38.72;22.35;;;7.20;99.90;;;;;;6251136;23;20188;-87
2022/12/21 10:24:52;;;;;;;35.28;23.40;;;6.70;99.90;;;;;;6258829;22;20675;-88
2022/12/21 10:27:22;;;;;;;39.58;26.25;;;7.30;99.90;;;;;;6257243;23;20270;-88
2022/12/21 10:29:56;;;;;;;33.27;22.53;;;7.30;99.90;;;;;;6258311;22;20167;-88
2022/12/21 10:32:26;;;;;;;35.90;24.83;;;6.80;99.90;;;;;;6253877;23;20457;-88
2022/12/21 10:34:55;;;;;;;33.38;22.67;;;6.90;99.90;;;;;;6252550;22;20654;-87
2022/12/21 10:37:23;;;;;;;37.35;23.85;;;6.70;99.90;;;;;;6251413;23;20193;-88
2022/12/21 10:39:55;;;;;;;42.35;25.92;;;7.10;99.90;;;;;;6251374;23;20174;-87
2022/12/21 10:42:27;;;;;;;38.60;23.90;;;7.40;99.90;;;;;;6250759;23;20163;-87
2022/12/21 10:44:56;;;;;;;35.95;22.63;;;7.10;99.90;;;;;;6250836;22;20226;-87
2022/12/21 10:47:24;;;;;;;36.25;22.77;;;6.80;99.90;;;;;;6251228;22;20179;-88
2022/12/21 10:49:59;;;;;;;41.80;25.15;;;7.10;99.90;;;;;;6252471;23;20175;-87
2022/12/21 10:52:48;;;;;;;40.55;23.95;;;7.30;99.90;;;;;;6252690;23;20306;-87
2022/12/21 10:55:34;;;;;;;35.67;22.52;;;7.10;99.90;;;;;;6261046;22;20575;-86
2022/12/21 10:58:16;;;;;;;32.50;21.87;;;7.10;99.90;;;;;;6272068;22;20170;-87
2022/12/21 11:00:56;;;;;;;31.38;20.08;;;7.10;99.90;;;;;;6273340;22;20477;-87
2022/12/21 11:03:26;;;;;;;34.03;21.65;;;7.20;99.90;;;;;;6274205;22;20158;-87
2022/12/21 11:05:53;;;;;;;42.63;26.13;;;6.90;99.90;;;;;;6274126;22;20198;-87
2022/12/21 11:08:25;;;;;;;37.20;25.75;;;7.10;99.90;;;;;;6274096;22;20190;-88
2022/12/21 11:10:54;;;;;;;35.05;23.02;;;6.80;99.90;;;;;;6274377;22;20162;-87
2022/12/21 11:13:22;;;;;;;34.20;22.83;;;7.40;99.90;;;;;;6272939;22;20158;-87
2022/12/21 11:15:56;;;;;;;34.70;23.50;;;6.80;99.90;;;;;;6265710;22;20199;-87
2022/12/21 11:18:34;;;;;;;35.70;24.23;;;7.30;99.90;;;;;;6272224;23;20190;-88
2022/12/21 11:21:02;;;;;;;37.55;21.90;;;;;;;;;;6273929;22;20193;-87
2022/12/21 11:23:29;;;;;;;34.57;22.93;;;7.50;99.90;;;;;;6272905;22;20155;-88
2022/12/21 11:25:56;;;;;;;35.33;22.80;;;7.10;99.90;;;;;;6270978;22;20428;-87
2022/12/21 11:28:24;;;;;;;30.50;22.47;;;7.40;99.90;;;;;;6273585;22;20191;-87
2022/12/21 11:30:56;;;;;;;38.83;23.63;;;7.20;99.90;;;;;;6258141;23;20376;-87
2022/12/21 11:33:23;;;;;;;42.00;23.45;;;6.90;99.90;;;;;;6257985;23;20182;-88
2022/12/21 11:36:08;;;;;;;35.33;24.20;;;7.50;99.90;;;;;;6266648;22;20198;-87
2022/12/21 11:38:36;;;;;;;31.33;22.95;;;7.30;99.90;;;;;;6261438;23;20405;-88
2022/12/21 11:41:10;;;;;;;42.78;24.48;;;7.20;99.90;;;;;;6265774;22;20171;-89
2022/12/21 11:43:44;;;;;;;41.25;27.35;;;7.40;99.90;;;;;;6252380;22;20238;-88
2022/12/21 11:46:22;;;;;;;46.03;29.45;;;7.40;99.90;;;;;;6251642;23;20202;-88
2022/12/21 11:49:03;;;;;;;38.38;26.58;;;9.60;99.90;;;;;;6250270;23;20205;-87
2022/12/21 11:51:38;;;;;;;36.53;23.00;;;7.20;99.90;;;;;;6252957;23;20189;-87
2022/12/21 11:54:22;;;;;;;29.67;21.40;;;7.00;99.90;;;;;;6266251;22;20233;-87
2022/12/21 11:56:56;;;;;;;32.13;21.38;;;7.30;99.90;;;;;;6273010;22;20170;-87
2022/12/21 11:59:44;;;;;;;42.50;24.50;;;7.90;99.90;;;;;;6267580;23;20197;-87
2022/12/21 12:02:41;;;;;;;34.88;22.17;;;7.40;99.90;;;;;;6251035;22;20185;-87
2022/12/21 12:05:24;;;;;;;34.08;20.00;;;7.40;99.90;;;;;;6253151;22;20226;-87
2022/12/21 12:07:56;;;;;;;39.10;21.85;;;7.20;99.90;;;;;;6254416;23;20194;-88
2022/12/21 12:10:48;;;;;;;33.22;22.05;;;7.90;99.90;;;;;;6258273;23;20238;-88
2022/12/21 12:13:27;;;;;;;33.85;24.65;;;7.30;99.90;;;;;;6256333;23;20183;-87
2022/12/21 12:16:01;;;;;;;40.25;27.42;;;7.40;99.90;;;;;;6255304;22;20233;-87
2022/12/21 12:18:50;;;;;;;37.22;25.27;;;7.40;99.90;;;;;;6253145;23;20181;-87
2022/12/21 12:21:54;;;;;;;34.25;22.88;;;7.40;99.90;;;;;;6258613;23;20197;-88
2022/12/21 12:24:49;;;;;;;38.63;23.45;;;7.40;99.90;;;;;;6257498;22;20681;-89
2022/12/21 12:27:27;;;;;;;30.52;20.92;;;7.40;99.90;;;;;;6252148;23;20159;-87
2022/12/21 12:30:09;;;;;;;35.35;22.25;;;7.50;99.90;;;;;;6251752;23;20210;-88
2022/12/21 12:32:58;;;;;;;33.97;21.43;;;7.70;99.90;;;;;;6261718;23;20163;-87
2022/12/21 12:36:03;;;;;;;34.70;20.50;;;7.40;99.90;;;;;;6243147;22;20448;-87
2022/12/21 12:38:49;;;;;;;30.60;20.90;;;7.50;99.90;;;;;;6160114;23;20396;-87
2022/12/21 12:41:30;;;;;;;32.92;20.30;;;7.40;99.90;;;;;;6163840;23;20180;-88
2022/12/21 12:44:02;;;;;;;33.53;23.38;;;7.40;99.90;;;;;;6229882;22;20265;-87
2022/12/21 12:46:52;;;;;;;32.85;19.95;;;7.30;99.90;;;;;;6252418;23;20253;-87
2022/12/21 12:49:42;;;;;;;31.95;22.73;;;7.50;99.90;;;;;;6251215;23;20183;-87
2022/12/21 12:52:20;;;;;;;33.30;21.77;;;7.40;99.90;;;;;;6249822;23;20179;-88
2022/12/21 12:54:56;;;;;;;32.22;21.95;;;7.40;99.90;;;;;;6253987;22;20273;-86
2022/12/21 12:57:30;;;;;;;37.55;24.20;;;7.50;99.90;;;;;;6251026;23;20244;-87
2022/12/21 13:00:03;;;;;;;41.23;26.00;;;7.40;99.90;;;;;;6254165;23;20170;-87
2022/12/21 13:02:43;;;;;;;40.00;25.52;;;7.40;99.90;;;;;;6257840;23;20417;-88
2022/12/21 13:05:24;;;;;;;39.33;27.83;;;7.40;99.90;;;;;;6258131;22;20258;-87
2022/12/21 13:08:03;;;;;;;34.47;24.50;;;7.40;99.90;;;;;;6258400;23;20162;-87
2022/12/21 13:10:42;;;;;;;36.05;21.60;;;7.40;99.90;;;;;;6259124;22;20389;-87
2022/12/21 13:13:16;;;;;;;32.38;22.30;;;7.30;99.90;;;;;;6258623;23;20171;-87
2022/12/21 13:15:51;;;;;;;37.75;22.48;;;7.50;99.90;;;;;;6255419;22;20204;-88
2022/12/21 13:18:25;;;;;;;40.58;24.13;;;7.40;99.90;;;;;;6256781;22;20607;-88
2022/12/21 13:20:56;;;;;;;31.42;21.63;;;7.50;99.90;;;;;;6265161;23;20153;-87
2022/12/21 13:23:35;;;;;;;35.07;23.43;;;7.50;99.90;;;;;;6272975;22;20166;-88
2022/12/21 13:26:09;;;;;;;34.20;21.92;;;7.50;99.90;;;;;;6256344;23;20873;-89
2022/12/21 13:28:46;;;;;;;31.58;22.17;;;7.50;99.90;;;;;;6253527;23;20646;-88
2022/12/21 13:31:14;;;;;;;32.22;20.70;;;7.50;99.90;;;;;;6261440;22;20158;-88
2022/12/21 13:33:48;;;;;;;32.45;23.50;;;7.50;99.90;;;;;;6250899;22;20265;-88
2022/12/21 13:36:17;;;;;;;35.30;23.13;;;7.60;99.90;;;;;;6250037;23;20181;-87
2022/12/21 13:38:55;;;;;;;32.80;21.73;;;7.50;99.90;;;;;;6266751;22;20162;-87
2022/12/21 13:41:27;;;;;;;36.95;25.13;;;7.30;99.90;;;;;;6275150;22;20397;-87
2022/12/21 13:44:02;;;;;;;28.73;20.88;;;7.30;99.90;;;;;;6261190;22;20205;-87
2022/12/21 13:50:23;;;;;;;;;;;;;;;;;;;;;
2022/12/21 14:00:14;;;;;;;26.50;19.42;;;7.50;99.90;;;;;;6116589;23;20188;-84
2022/12/21 14:20:46;;;;;;;26.23;18.03;;;7.50;99.90;;;;;;6134592;23;20406;-83
2022/12/21 14:24:27;;;;;;;;;;;;;;;;;;;;;
2022/12/21 14:31:02;;;;;;;30.30;21.67;;;7.40;99.90;;;;;;6239864;23;20442;-85
2022/12/21 14:33:52;;;;;;;29.52;19.50;;;7.50;99.90;;;;;;6172427;23;20697;-83
2022/12/21 14:44:03;;;;;;;;;;;;;;;;;;;;;
2022/12/21 14:47:23;;;;;;;;;;;;;;;;;;;;;
2022/12/21 15:22:14;;;;;;;23.10;16.90;;;7.30;99.90;;;;;;6296739;22;20204;-88
2022/12/21 15:24:49;;;;;;;27.10;18.70;;;7.30;99.90;;;;;;6302769;22;20146;-88
2022/12/21 15:27:20;;;;;;;25.63;18.13;;;7.30;99.90;;;;;;6296149;22;20189;-88
2022/12/21 15:29:50;;;;;;;25.20;18.10;;;7.40;99.90;;;;;;6291693;22;20747;-88
2022/12/21 15:32:21;;;;;;;26.50;17.95;;;7.30;99.90;;;;;;6292674;22;20189;-88
2022/12/21 15:34:52;;;;;;;25.27;17.05;;;7.30;99.90;;;;;;6293162;22;20162;-87
2022/12/21 15:37:23;;;;;;;25.48;17.27;;;7.40;99.90;;;;;;6294662;22;20162;-87
2022/12/21 15:39:56;;;;;;;26.95;19.25;;;7.30;99.90;;;;;;6291111;22;20697;-87
2022/12/21 15:42:27;;;;;;;24.67;17.15;;;7.30;99.90;;;;;;6290141;22;20346;-87
2022/12/21 15:45:01;;;;;;;31.20;18.13;;;7.50;99.90;;;;;;6292407;22;20181;-87
2022/12/21 15:47:36;;;;;;;25.70;17.67;;;7.70;99.90;;;;;;6289673;22;20393;-87
2022/12/21 15:50:12;;;;;;;23.70;17.50;;;7.00;99.90;;;;;;6284419;22;20205;-87
2022/12/21 15:52:42;;;;;;;28.05;18.77;;;7.30;99.90;;;;;;6295757;22;20185;-87
2022/12/21 15:55:14;;;;;;;22.05;16.48;;;7.20;99.90;;;;;;6285663;22;20241;-86
2022/12/21 15:57:44;;;;;;;22.83;17.00;;;7.20;99.90;;;;;;6285011;22;20194;-87
2022/12/21 16:00:17;;;;;;;24.65;18.17;;;7.30;99.90;;;;;;6290463;22;20194;-86
2022/12/21 16:02:46;;;;;;;21.45;16.55;;;7.20;99.90;;;;;;6305431;22;20190;-86
2022/12/21 16:05:15;;;;;;;23.55;16.27;;;7.20;99.90;;;;;;6305191;22;20200;-86